Time;durP1;ratioP1;P1;durP2;ratioP2;P2;SDS_P1;SDS_P2;PMS_P1;PMS_P2;Temp;Humidity;BMP_temperature;BMP_pressure;BME280_temperature;BME280_humidity;BME280_pressure;Samples;Min_cycle;Max_cycle;Signal;HPM_P1;HPM_P2
2023/05/24 00:00:45;;;;;;;16.73;6.03;;;;;;;10.27;67.10;102362.00;5073642;28;20032;-64
2023/05/24 00:03:14;;;;;;;15.52;6.20;;;;;;;10.18;67.59;102357.00;5073459;28;20024;-64
2023/05/24 00:05:39;;;;;;;13.55;5.90;;;;;;;10.25;67.41;102358.50;5071967;28;20486;-64
2023/05/24 00:08:05;;;;;;;11.35;5.63;;;;;;;10.19;67.38;102340.97;5072936;28;20028;-65
2023/05/24 00:10:30;;;;;;;16.42;5.68;;;;;;;9.93;68.78;102341.94;5071995;28;20060;-64
2023/05/24 00:12:56;;;;;;;14.25;5.70;;;;;;;10.14;68.27;102353.56;5073016;28;20063;-64
2023/05/24 00:15:21;;;;;;;11.68;5.53;;;;;;;10.09;67.91;102342.25;5073261;28;20035;-64
2023/05/24 00:17:47;;;;;;;13.35;5.90;;;;;;;10.08;68.31;102347.59;5072776;28;20078;-64
2023/05/24 00:20:13;;;;;;;16.90;6.00;;;;;;;9.99;68.58;102325.75;5073257;28;20516;-64
2023/05/24 00:22:38;;;;;;;16.10;6.18;;;;;;;10.05;68.82;102323.81;5071288;28;20025;-64
2023/05/24 00:25:05;;;;;;;23.48;6.20;;;;;;;9.93;68.68;102331.28;5071810;28;20040;-64
2023/05/24 00:27:31;;;;;;;19.73;6.30;;;;;;;9.95;68.66;102325.94;5072817;28;20104;-64
2023/05/24 00:29:57;;;;;;;17.17;5.95;;;;;;;9.81;69.06;102329.09;5073089;28;20070;-64
2023/05/24 00:32:22;;;;;;;18.75;5.82;;;;;;;9.95;68.30;102332.13;5072367;28;20029;-65
2023/05/24 00:34:50;;;;;;;15.77;5.28;;;;;;;9.70;69.20;102334.78;5071685;28;20105;-64
2023/05/24 00:37:18;;;;;;;13.55;5.68;;;;;;;9.75;69.37;102324.84;5054144;28;20032;-64
2023/05/24 00:39:43;;;;;;;18.50;6.30;;;;;;;9.70;69.40;102325.94;5072608;28;20032;-65
2023/05/24 00:42:08;;;;;;;16.42;6.60;;;;;;;9.64;69.36;102321.72;5072676;28;20452;-64
2023/05/24 00:44:36;;;;;;;15.15;5.95;;;;;;;9.57;70.14;102317.56;5072431;28;20059;-64
2023/05/24 00:47:01;;;;;;;18.55;6.28;;;;;;;9.61;70.04;102313.84;5072154;28;20027;-64
2023/05/24 00:49:27;;;;;;;18.00;6.57;;;;;;;9.53;70.09;102319.47;5071368;28;20553;-64
2023/05/24 00:51:53;;;;;;;16.65;6.05;;;;;;;9.45;70.11;102317.97;5071910;28;20514;-65
2023/05/24 00:54:19;;;;;;;15.80;6.40;;;;;;;9.26;70.62;102315.94;5072484;28;20024;-64
2023/05/24 00:56:45;;;;;;;19.92;7.35;;;;;;;9.47;70.39;102316.13;5071099;28;20073;-64
2023/05/24 00:59:10;;;;;;;15.15;6.32;;;;;;;9.43;71.11;102319.81;5072598;28;20099;-64
2023/05/24 01:01:36;;;;;;;19.83;6.50;;;;;;;9.39;71.18;102310.22;5070679;28;20506;-64
2023/05/24 01:04:04;;;;;;;12.82;6.43;;;;;;;9.30;71.20;102317.59;5072449;28;20023;-64
2023/05/24 01:06:36;;;;;;;14.18;6.10;;;;;;;9.42;71.12;102312.78;5070392;28;20037;-64
2023/05/24 01:09:15;;;;;;;14.55;6.07;;;;;;;9.40;71.14;102317.25;5071079;28;20032;-64
2023/05/24 01:12:23;;;;;;;14.83;6.37;;;;;;;9.37;70.77;102315.59;5072135;28;20517;-64
2023/05/24 01:14:54;;;;;;;13.05;5.93;;;;;;;9.20;71.40;102310.84;5029994;28;20308;-64
2023/05/24 01:17:31;;;;;;;14.25;5.45;;;;;;;9.21;71.23;102304.63;5029759;28;20033;-64
2023/05/24 01:20:07;;;;;;;13.68;6.57;;;;;;;9.20;71.03;102302.88;5056008;28;20090;-64
2023/05/24 01:22:48;;;;;;;15.05;7.22;;;;;;;9.14;71.85;102302.22;5071552;28;20432;-65
2023/05/24 01:25:37;;;;;;;13.65;6.13;;;;;;;9.20;71.64;102302.88;5071071;28;20008;-64
2023/05/24 01:28:05;;;;;;;20.00;6.20;;;;;;;9.02;71.59;102298.19;5071975;28;20020;-64
2023/05/24 01:30:31;;;;;;;17.73;7.28;;;;;;;9.04;72.03;102301.66;5053735;28;20476;-64
2023/05/24 01:32:57;;;;;;;15.98;6.72;;;;;;;8.94;72.13;102279.00;5071877;28;20017;-64
2023/05/24 01:35:22;;;;;;;13.32;6.50;;;;;;;9.03;72.22;102295.50;5071981;28;20387;-64
2023/05/24 01:37:47;;;;;;;13.55;6.40;;;;;;;8.99;72.28;102304.47;5071346;28;20130;-64
2023/05/24 01:40:14;;;;;;;17.52;7.22;;;;;;;8.95;72.29;102300.19;5072023;28;20020;-65
2023/05/24 01:42:47;;;;;;;12.25;6.30;;;;;;;8.88;72.40;102309.25;5071805;28;20027;-64
2023/05/24 01:45:13;;;;;;;13.70;6.85;;;;;;;8.82;72.13;102293.53;5071490;28;20048;-64
2023/05/24 01:47:52;;;;;;;15.82;6.75;;;;;;;8.83;72.66;102292.63;5071549;28;20040;-64
2023/05/24 01:50:25;;;;;;;14.38;6.50;;;;;;;8.79;72.86;102291.84;5070775;28;20035;-64
2023/05/24 01:52:52;;;;;;;14.57;6.55;;;;;;;8.82;72.62;102290.88;5071186;28;20151;-64
2023/05/24 01:55:19;;;;;;;15.23;6.35;;;;;;;8.79;72.90;102288.31;5074277;28;20387;-64
2023/05/24 01:57:47;;;;;;;15.40;6.68;;;;;;;8.71;72.97;102287.72;5075603;28;20017;-64
2023/05/24 02:00:15;;;;;;;12.30;6.97;;;;;;;8.64;73.06;102290.56;5074446;28;20032;-64
2023/05/24 02:02:40;;;;;;;11.57;6.57;;;;;;;8.72;72.44;102279.72;5091545;28;20032;-64
2023/05/24 02:05:06;;;;;;;18.25;6.45;;;;;;;8.72;72.54;102292.97;5074545;28;20024;-64
2023/05/24 02:07:32;;;;;;;13.07;6.43;;;;;;;8.62;72.65;102294.19;5073878;28;20649;-64
2023/05/24 02:09:57;;;;;;;14.90;6.22;;;;;;;8.61;72.76;102297.75;5074443;28;20059;-64
2023/05/24 02:12:22;;;;;;;17.48;6.78;;;;;;;8.43;73.21;102288.56;5074060;28;20488;-64
2023/05/24 02:14:49;;;;;;;15.70;6.50;;;;;;;8.63;72.47;102294.13;5075128;28;20029;-64
2023/05/24 02:17:16;;;;;;;14.07;6.70;;;;;;;8.45;73.01;102299.16;5074130;28;20021;-64
2023/05/24 02:19:42;;;;;;;11.55;6.20;;;;;;;8.40;73.25;102308.09;5074320;28;20368;-64
2023/05/24 02:22:08;;;;;;;13.80;6.50;;;;;;;8.32;73.42;102301.25;5075170;28;20082;-64
2023/05/24 02:24:33;;;;;;;11.13;6.55;;;;;;;8.37;73.86;102294.91;5074087;28;20027;-64
2023/05/24 02:26:59;;;;;;;12.27;6.80;;;;;;;8.27;73.82;102297.91;5075148;28;20024;-64
2023/05/24 02:29:24;;;;;;;13.48;6.95;;;;;;;8.31;73.72;102296.88;5075100;28;20081;-64
2023/05/24 02:31:55;;;;;;;10.57;6.47;;;;;;;8.25;73.90;102303.22;5075053;28;20525;-64
2023/05/24 02:34:22;;;;;;;13.38;7.05;;;;;;;8.28;73.74;102308.44;5075348;28;20571;-64
2023/05/24 02:36:48;;;;;;;8.63;4.43;;;;;;;8.53;72.78;102302.41;5074503;28;20491;-64
2023/05/24 02:39:13;;;;;;;11.45;4.20;;;;;;;8.54;72.76;102310.34;5073891;28;20031;-64
2023/05/24 02:41:39;;;;;;;13.25;7.38;;;;;;;8.27;73.47;102304.06;5074949;28;20175;-65
2023/05/24 02:44:05;;;;;;;15.25;7.53;;;;;;;8.24;73.64;102300.63;5074719;28;20116;-64
2023/05/24 02:46:31;;;;;;;15.45;7.50;;;;;;;8.13;73.35;102301.81;5074653;28;20142;-64
2023/05/24 02:48:56;;;;;;;11.07;4.30;;;;;;;8.33;72.82;102295.06;5074899;28;20028;-64
2023/05/24 02:51:21;;;;;;;9.63;4.82;;;;;;;8.38;72.79;102312.59;5074952;28;20122;-64
2023/05/24 02:53:47;;;;;;;15.20;7.00;;;;;;;8.11;73.61;102305.41;5074377;28;20101;-64
2023/05/24 02:56:18;;;;;;;14.80;6.43;;;;;;;7.92;74.27;102302.44;5074744;28;20406;-64
2023/05/24 02:58:43;;;;;;;12.48;6.68;;;;;;;8.02;73.75;102310.97;5074356;28;20021;-64
2023/05/24 03:01:11;;;;;;;9.38;4.40;;;;;;;8.29;73.34;102306.66;5073738;28;20107;-64
2023/05/24 03:03:40;;;;;;;7.85;4.20;;;;;;;8.31;72.79;102310.13;5074504;28;20053;-64
2023/05/24 03:06:06;;;;;;;12.43;4.55;;;;;;;8.31;72.93;102312.78;5072039;28;20074;-64
2023/05/24 03:08:32;;;;;;;8.82;4.93;;;;;;;8.20;72.89;102306.00;5073265;28;20028;-64
2023/05/24 03:10:58;;;;;;;12.32;4.53;;;;;;;8.23;73.15;102310.34;5074516;28;20035;-64
2023/05/24 03:13:23;;;;;;;13.23;6.80;;;;;;;7.93;74.18;102307.69;5074200;28;20028;-64
2023/05/24 03:15:49;;;;;;;12.77;7.28;;;;;;;7.76;74.74;102301.13;5073068;28;20025;-64
2023/05/24 03:18:14;;;;;;;9.88;5.10;;;;;;;8.00;74.14;102307.50;5072956;28;20025;-64
2023/05/24 03:20:40;;;;;;;6.47;4.32;;;;;;;8.09;73.87;102302.81;5074411;28;20367;-64
2023/05/24 03:23:06;;;;;;;12.48;5.15;;;;;;;8.04;73.95;102301.22;5072642;28;20016;-64
2023/05/24 03:25:31;;;;;;;13.82;6.65;;;;;;;7.67;74.87;102296.94;5074360;28;20455;-64
2023/05/24 03:27:57;;;;;;;12.35;7.03;;;;;;;7.78;74.85;102297.53;5073812;28;20467;-64
2023/05/24 03:30:22;;;;;;;11.43;4.63;;;;;;;8.02;74.14;102306.56;5074249;28;20028;-64
2023/05/24 03:32:48;;;;;;;8.35;4.57;;;;;;;8.00;74.17;102295.16;5073887;28;20024;-64
2023/05/24 03:35:15;;;;;;;14.80;4.20;;;;;;;7.97;74.18;102289.91;5074133;28;20031;-64
2023/05/24 03:37:41;;;;;;;10.05;5.55;;;;;;;7.91;74.38;102295.38;5073416;28;20053;-64
2023/05/24 03:40:07;;;;;;;8.05;4.15;;;;;;;8.00;74.20;102292.50;5074120;28;20025;-64
2023/05/24 03:42:33;;;;;;;8.27;4.80;;;;;;;7.92;74.42;102284.75;5072289;28;20395;-64
2023/05/24 03:44:58;;;;;;;15.50;4.85;;;;;;;8.01;74.42;102296.00;5073607;28;20051;-64
2023/05/24 03:47:23;;;;;;;11.30;4.80;;;;;;;8.02;74.32;102293.31;5073583;28;20024;-64
2023/05/24 03:49:50;;;;;;;11.13;7.35;;;;;;;7.77;75.27;102298.44;5055826;28;20021;-64
2023/05/24 03:52:15;;;;;;;14.10;7.78;;;;;;;7.72;75.45;102297.69;5071824;28;20479;-64
2023/05/24 03:54:40;;;;;;;10.27;5.43;;;;;;;7.91;75.07;102290.09;5072411;28;20031;-64
2023/05/24 03:57:06;;;;;;;13.25;5.07;;;;;;;8.03;74.73;102302.13;5073381;28;20021;-64
2023/05/24 03:59:31;;;;;;;10.38;5.35;;;;;;;7.95;75.13;102303.22;5073546;28;20079;-64
2023/05/24 04:01:57;;;;;;;14.95;5.38;;;;;;;7.99;74.69;102289.88;5073416;28;20115;-64
2023/05/24 04:04:22;;;;;;;15.07;5.82;;;;;;;8.01;74.71;102296.00;5073542;28;20098;-64
2023/05/24 04:06:50;;;;;;;12.32;5.15;;;;;;;7.96;75.18;102304.06;5072696;28;20421;-64
2023/05/24 04:09:15;;;;;;;15.43;5.22;;;;;;;7.95;75.33;102299.72;5072088;28;20030;-64
2023/05/24 04:11:40;;;;;;;9.15;4.60;;;;;;;7.97;75.22;102304.06;5073100;28;20021;-64
2023/05/24 04:14:06;;;;;;;14.95;7.03;;;;;;;7.79;76.12;102288.66;5071955;28;20029;-64
2023/05/24 04:16:32;;;;;;;11.52;4.80;;;;;;;7.99;75.67;102298.69;5071796;28;20363;-64
2023/05/24 04:19:02;;;;;;;8.90;4.50;;;;;;;7.95;75.49;102297.06;5072755;28;20043;-64
2023/05/24 04:21:28;;;;;;;11.88;5.10;;;;;;;8.00;75.91;102297.81;5072519;28;20107;-64
2023/05/24 04:23:55;;;;;;;10.18;5.97;;;;;;;7.94;76.23;102304.13;5073117;28;20472;-64
2023/05/24 04:26:20;;;;;;;12.13;5.18;;;;;;;8.03;76.05;102312.72;5071496;28;20430;-64
2023/05/24 04:28:47;;;;;;;10.98;5.68;;;;;;;7.92;76.41;102298.00;5072719;28;20029;-64
2023/05/24 04:31:14;;;;;;;11.95;5.53;;;;;;;7.99;76.56;102296.03;5072947;28;20032;-64
2023/05/24 04:33:40;;;;;;;13.00;6.13;;;;;;;7.99;77.02;102300.47;5071443;28;20024;-64
2023/05/24 04:36:07;;;;;;;18.38;9.40;;;;;;;7.82;78.12;102298.31;5072715;28;20023;-64
2023/05/24 04:38:33;;;;;;;11.57;5.88;;;;;;;8.02;77.65;102303.91;5072221;28;20391;-64
2023/05/24 04:40:59;;;;;;;11.82;5.10;;;;;;;8.11;77.57;102303.63;5072450;28;20013;-64
2023/05/24 04:43:28;;;;;;;22.92;7.50;;;;;;;8.09;77.99;102301.94;5072770;28;20020;-64
2023/05/24 04:45:54;;;;;;;13.73;5.13;;;;;;;8.16;77.59;102303.50;5071499;28;20072;-64
2023/05/24 04:48:22;;;;;;;10.35;6.95;;;;;;;8.14;78.43;102310.63;5072377;28;20071;-64
2023/05/24 04:50:49;;;;;;;9.23;5.43;;;;;;;8.24;78.27;102309.47;5072360;28;20107;-64
2023/05/24 04:53:14;;;;;;;14.23;5.53;;;;;;;8.29;78.16;102307.50;5071959;28;20380;-64
2023/05/24 04:55:42;;;;;;;11.07;6.20;;;;;;;8.31;78.52;102307.47;5071023;28;20036;-64
2023/05/24 04:58:08;;;;;;;16.48;7.25;;;;;;;8.27;79.24;102305.84;5072636;28;20463;-64
2023/05/24 05:00:33;;;;;;;22.33;10.25;;;;;;;8.12;80.26;102305.38;5072410;28;20071;-64
2023/05/24 05:02:59;;;;;;;14.88;5.88;;;;;;;8.37;79.51;102307.28;5104886;28;20020;-64
2023/05/24 05:05:24;;;;;;;17.83;9.38;;;;;;;8.25;80.35;102295.28;5072221;28;20479;-64
2023/05/24 05:07:50;;;;;;;19.85;7.47;;;;;;;8.34;80.82;102288.84;5071461;28;20024;-64
2023/05/24 05:10:15;;;;;;;15.00;6.15;;;;;;;8.56;80.29;102305.84;5072240;28;20111;-64
2023/05/24 05:12:41;;;;;;;19.92;9.93;;;;;;;8.44;80.51;102286.78;5070796;28;20031;-64
2023/05/24 05:15:07;;;;;;;21.73;10.00;;;;;;;8.55;80.73;102304.09;5070942;28;20035;-64
2023/05/24 05:17:32;;;;;;;17.27;5.85;;;;;;;8.72;79.92;102298.28;5071976;28;20384;-64
2023/05/24 05:19:58;;;;;;;17.30;6.13;;;;;;;8.79;80.36;102306.91;5072009;28;20503;-64
2023/05/24 05:22:23;;;;;;;27.98;10.73;;;;;;;8.70;81.62;102313.34;5071368;28;20048;-64
2023/05/24 05:24:49;;;;;;;16.90;9.15;;;;;;;8.76;82.12;102312.31;5104564;28;20054;-64
2023/05/24 05:27:14;;;;;;;21.80;10.05;;;;;;;8.74;82.76;102308.84;5070661;28;20051;-64
2023/05/24 05:29:40;;;;;;;23.73;9.65;;;;;;;8.94;82.81;102306.44;5071354;28;20035;-64
2023/05/24 05:32:06;;;;;;;28.13;11.05;;;;;;;8.93;83.35;102314.41;5070536;28;20023;-64
2023/05/24 05:34:31;;;;;;;24.08;10.27;;;;;;;9.04;83.81;102315.81;5104461;28;20387;-64
2023/05/24 05:36:56;;;;;;;27.95;10.85;;;;;;;9.11;83.93;102308.50;5071071;28;20024;-64
2023/05/24 05:39:22;;;;;;;25.67;10.23;;;;;;;9.12;83.99;102304.06;5071959;28;20463;-64
2023/05/24 05:41:49;;;;;;;30.67;10.82;;;;;;;9.23;84.00;102308.06;5070464;28;20082;-64
2023/05/24 05:44:15;;;;;;;31.38;11.07;;;;;;;9.39;83.73;102296.97;5104257;28;20036;-64
2023/05/24 05:46:45;;;;;;;28.90;11.13;;;;;;;9.46;84.11;102304.63;5071658;28;20029;-64
2023/05/24 05:49:12;;;;;;;24.60;10.73;;;;;;;9.46;83.40;102299.31;5071865;28;20028;-64
2023/05/24 05:51:37;;;;;;;27.83;10.43;;;;;;;9.63;83.11;102312.03;5103586;28;20063;-64
2023/05/24 05:54:04;;;;;;;23.80;10.77;;;;;;;9.66;84.34;102303.06;5071703;28;20052;-64
2023/05/24 05:56:32;;;;;;;36.15;10.95;;;;;;;9.85;83.30;102316.56;5071557;28;20060;-64
2023/05/24 05:58:57;;;;;;;29.35;10.95;;;;;;;9.93;83.20;102311.84;5071731;28;20108;-64
2023/05/24 06:01:23;;;;;;;27.63;10.60;;;;;;;10.11;82.06;102323.56;5071678;28;20135;-64
2023/05/24 06:03:48;;;;;;;32.78;11.05;;;;;;;10.21;82.52;102325.84;5071532;28;20447;-64
2023/05/24 06:06:13;;;;;;;28.55;9.98;;;;;;;10.30;82.38;102335.28;5071455;28;20082;-64
2023/05/24 06:08:39;;;;;;;29.58;10.73;;;;;;;10.40;81.74;102327.81;5070021;28;20115;-64
2023/05/24 06:11:05;;;;;;;28.88;10.48;;;;;;;10.44;82.43;102335.63;5071538;28;20063;-64
2023/05/24 06:13:31;;;;;;;25.40;10.75;;;;;;;10.34;81.70;102338.69;5071532;28;20112;-64
2023/05/24 06:15:57;;;;;;;27.58;10.45;;;;;;;10.53;81.30;102345.06;5071580;28;20398;-64
2023/05/24 06:18:24;;;;;;;22.27;10.90;;;;;;;10.63;81.33;102343.75;5071314;28;20104;-64
2023/05/24 06:20:50;;;;;;;26.45;10.15;;;;;;;10.61;81.10;102337.63;5071165;28;20021;-64
2023/05/24 06:23:17;;;;;;;26.15;10.60;;;;;;;10.83;80.25;102340.31;5103622;28;20035;-65
2023/05/24 06:25:43;;;;;;;22.00;10.20;;;;;;;10.89;80.86;102344.53;5071459;28;20033;-64
2023/05/24 06:28:09;;;;;;;21.83;10.02;;;;;;;10.97;80.35;102334.44;5071516;28;20073;-65
2023/05/24 06:30:34;;;;;;;28.27;10.50;;;;;;;11.05;80.54;102326.97;5104072;28;20057;-64
2023/05/24 06:33:01;;;;;;;27.20;10.45;;;;;;;11.14;80.47;102336.38;5103557;28;20460;-65
2023/05/24 06:35:26;;;;;;;24.70;10.63;;;;;;;11.20;79.66;102340.59;5103593;28;20020;-64
2023/05/24 06:37:52;;;;;;;29.92;11.30;;;;;;;11.31;78.43;102346.34;5069454;28;20503;-65
2023/05/24 06:40:19;;;;;;;25.85;10.38;;;;;;;11.40;78.50;102342.41;5071987;28;20383;-64
2023/05/24 06:42:45;;;;;;;26.98;10.40;;;;;;;11.42;78.91;102335.25;5074780;28;20039;-65
2023/05/24 06:45:12;;;;;;;29.52;11.00;;;;;;;11.36;78.81;102333.69;5107559;28;20499;-64
2023/05/24 06:47:37;;;;;;;30.95;11.55;;;;;;;11.42;78.69;102335.25;5107431;28;20032;-64
2023/05/24 06:50:03;;;;;;;31.52;11.30;;;;;;;11.59;78.70;102338.91;5074611;28;20040;-64
2023/05/24 06:52:29;;;;;;;29.38;11.93;;;;;;;11.67;77.94;102337.69;5074277;28;20020;-64
2023/05/24 06:54:54;;;;;;;30.85;11.55;;;;;;;11.67;77.42;102333.22;5107449;28;20464;-65
2023/05/24 06:57:20;;;;;;;27.27;11.43;;;;;;;11.55;77.01;102342.63;5073428;28;20034;-64
2023/05/24 06:59:45;;;;;;;32.65;12.80;;;;;;;11.59;77.01;102346.03;5074598;28;20021;-65
2023/05/24 07:02:13;;;;;;;28.40;12.32;;;;;;;11.63;76.30;102352.97;5074711;28;20357;-64
2023/05/24 07:04:42;;;;;;;34.40;12.85;;;;;;;11.65;76.77;102350.22;5074652;28;20021;-64
2023/05/24 07:07:11;;;;;;;30.55;12.50;;;;;;;11.69;77.16;102351.81;5106828;28;20053;-64
2023/05/24 07:09:37;;;;;;;28.50;13.25;;;;;;;11.82;75.70;102361.00;5074589;28;20070;-64
2023/05/24 07:12:03;;;;;;;31.20;13.02;;;;;;;11.74;75.95;102344.50;5074202;28;20029;-65
2023/05/24 07:14:29;;;;;;;29.15;12.55;;;;;;;11.76;74.47;102346.16;5074817;28;20024;-65
2023/05/24 07:16:56;;;;;;;27.83;12.88;;;;;;;11.85;75.40;102352.91;5074275;28;20495;-64
2023/05/24 07:19:21;;;;;;;30.45;12.32;;;;;;;11.87;75.01;102348.38;5106823;28;20499;-65
2023/05/24 07:21:47;;;;;;;32.45;12.45;;;;;;;12.07;73.92;102350.16;5073719;28;20032;-64
2023/05/24 07:24:12;;;;;;;30.40;12.35;;;;;;;12.08;72.96;102349.22;5074299;28;20406;-64
2023/05/24 07:26:38;;;;;;;29.00;11.05;;;;;;;12.18;72.28;102347.88;5074335;28;20029;-65
2023/05/24 07:29:03;;;;;;;29.77;11.52;;;;;;;12.21;71.81;102354.88;5074056;28;20443;-64
2023/05/24 07:31:31;;;;;;;27.80;11.80;;;;;;;12.23;72.12;102352.97;5106636;28;20498;-65
2023/05/24 07:33:57;;;;;;;28.25;10.93;;;;;;;12.19;72.03;102356.75;5073755;28;20025;-65
2023/05/24 07:36:24;;;;;;;26.35;10.20;;;;;;;12.07;72.34;102358.16;5074016;28;20032;-64
2023/05/24 07:38:52;;;;;;;25.25;10.50;;;;;;;12.17;72.16;102354.13;5106175;28;20027;-65
2023/05/24 07:41:18;;;;;;;27.35;11.00;;;;;;;12.18;71.49;102350.53;5106537;28;20111;-64
2023/05/24 07:43:43;;;;;;;25.45;9.85;;;;;;;12.38;70.91;102354.06;5073672;28;20149;-65
2023/05/24 07:46:09;;;;;;;22.30;9.40;;;;;;;12.76;69.21;102357.59;5072572;28;20132;-64
2023/05/24 07:48:34;;;;;;;21.52;9.00;;;;;;;13.16;66.92;102353.84;5073476;28;20054;-65
2023/05/24 07:51:00;;;;;;;23.15;8.48;;;;;;;13.07;65.15;102362.34;5073712;28;20035;-64
2023/05/24 07:53:25;;;;;;;19.50;8.88;;;;;;;13.12;64.78;102349.63;5072394;28;20020;-64
2023/05/24 07:55:51;;;;;;;20.60;8.57;;;;;;;13.09;64.50;102362.28;5073491;28;20395;-65
2023/05/24 07:58:16;;;;;;;25.48;9.00;;;;;;;12.92;65.05;102360.41;5073549;28;20044;-64
2023/05/24 08:00:41;;;;;;;23.05;7.85;;;;;;;12.99;64.41;102363.66;5072361;28;20104;-65
2023/05/24 08:03:07;;;;;;;25.30;8.05;;;;;;;13.10;64.15;102364.00;5071987;28;20383;-65
2023/05/24 08:05:33;;;;;;;22.77;8.10;;;;;;;13.31;62.47;102362.09;5073569;28;20032;-64
2023/05/24 08:07:58;;;;;;;19.83;7.28;;;;;;;13.36;62.48;102362.72;5072900;28;20024;-65
2023/05/24 08:10:24;;;;;;;21.02;7.60;;;;;;;13.53;63.41;102361.84;5072163;28;20036;-65
2023/05/24 08:12:53;;;;;;;18.92;7.70;;;;;;;13.53;61.99;102353.81;5072941;28;20031;-64
2023/05/24 08:15:19;;;;;;;21.15;7.65;;;;;;;13.83;61.74;102357.59;5073331;28;20035;-64
2023/05/24 08:17:44;;;;;;;24.88;8.50;;;;;;;13.78;62.57;102362.31;5072899;28;20391;-65
2023/05/24 08:20:13;;;;;;;27.50;8.15;;;;;;;13.51;62.62;102355.75;5073495;28;20028;-64
2023/05/24 08:22:38;;;;;;;18.55;6.93;;;;;;;13.49;62.39;102355.81;5072809;28;20062;-64
2023/05/24 08:25:05;;;;;;;22.88;7.35;;;;;;;13.49;60.81;102353.13;5073122;28;20028;-65
2023/05/24 08:27:31;;;;;;;19.75;7.18;;;;;;;13.29;60.84;102364.81;5071403;28;20481;-64
2023/05/24 08:29:57;;;;;;;20.63;7.22;;;;;;;13.54;62.01;102356.44;5072926;28;20130;-65
2023/05/24 08:32:22;;;;;;;17.88;6.57;;;;;;;13.72;59.93;102349.28;5072496;28;20518;-65
2023/05/24 08:34:48;;;;;;;20.05;6.40;;;;;;;14.15;59.22;102357.72;5071843;28;20032;-64
2023/05/24 08:37:14;;;;;;;17.83;6.60;;;;;;;14.43;57.96;102356.19;5072471;28;20039;-64
2023/05/24 08:39:40;;;;;;;15.70;6.53;;;;;;;14.62;57.93;102348.91;5073373;28;20021;-64
2023/05/24 08:42:06;;;;;;;19.95;6.78;;;;;;;14.79;57.80;102347.94;5072484;28;20536;-64
2023/05/24 08:44:45;;;;;;;15.90;6.93;;;;;;;14.72;58.35;102343.88;5072563;28;20036;-64
2023/05/24 08:47:12;;;;;;;18.50;6.95;;;;;;;14.74;56.91;102345.53;5071033;28;20027;-64
2023/05/24 08:49:41;;;;;;;17.10;6.57;;;;;;;14.75;57.69;102336.53;5071471;28;20449;-65
2023/05/24 08:52:11;;;;;;;17.80;6.50;;;;;;;14.65;57.28;102342.53;5070613;28;20028;-65
2023/05/24 08:54:37;;;;;;;16.83;6.47;;;;;;;14.85;56.07;102330.66;5072509;28;20025;-65
2023/05/24 08:57:03;;;;;;;18.17;6.95;;;;;;;15.07;54.53;102331.16;5072391;28;20032;-65
2023/05/24 08:59:28;;;;;;;17.27;6.63;;;;;;;15.35;54.69;102327.72;5072502;28;20446;-65
2023/05/24 09:01:56;;;;;;;17.52;5.95;;;;;;;15.30;55.04;102329.81;5071942;28;20027;-65
2023/05/24 09:04:23;;;;;;;16.05;6.07;;;;;;;15.57;53.09;102326.41;5072405;28;20078;-65
2023/05/24 09:06:51;;;;;;;15.13;6.03;;;;;;;15.76;52.57;102326.19;5071683;28;20119;-65
2023/05/24 09:09:20;;;;;;;18.20;6.43;;;;;;;15.67;52.32;102324.88;5071021;28;20559;-65
2023/05/24 09:11:50;;;;;;;15.03;5.93;;;;;;;15.62;52.41;102330.56;5071968;28;20086;-65
2023/05/24 09:14:16;;;;;;;24.38;7.65;;;;;;;15.84;54.30;102331.94;5072264;28;20025;-65
2023/05/24 09:16:43;;;;;;;18.05;5.85;;;;;;;15.77;53.34;102334.16;5070768;28;20077;-65
2023/05/24 09:19:08;;;;;;;17.42;6.82;;;;;;;15.85;52.74;102322.94;5072302;28;20468;-65
2023/05/24 09:21:34;;;;;;;16.95;6.55;;;;;;;16.08;52.30;102318.81;5071567;28;20107;-65
2023/05/24 09:23:59;;;;;;;16.27;6.28;;;;;;;16.13;51.29;102328.31;5070815;28;20023;-65
2023/05/24 09:26:29;;;;;;;15.02;5.53;;;;;;;16.46;51.88;102321.75;5072096;28;20310;-65
2023/05/24 09:28:56;;;;;;;14.77;6.22;;;;;;;16.78;50.63;102319.69;5071787;28;20502;-65
2023/05/24 09:31:32;;;;;;;16.20;6.38;;;;;;;17.11;50.27;102325.63;5072034;28;20489;-65
2023/05/24 09:33:57;;;;;;;18.42;5.38;;;;;;;17.12;49.22;102330.03;5071819;28;20059;-65
2023/05/24 09:36:23;;;;;;;13.02;5.25;;;;;;;17.13;47.65;102327.25;5071958;28;20055;-65
2023/05/24 09:39:05;;;;;;;19.00;5.93;;;;;;;17.14;48.95;102328.97;5070021;28;20515;-65
2023/05/24 09:41:31;;;;;;;13.25;5.82;;;;;;;17.06;48.31;102325.06;5071786;28;20024;-65
2023/05/24 09:43:59;;;;;;;19.55;6.03;;;;;;;17.31;49.93;102327.81;5070374;28;20016;-65
2023/05/24 09:46:25;;;;;;;19.05;5.38;;;;;;;17.41;47.60;102318.19;5070317;28;20040;-65
2023/05/24 09:48:58;;;;;;;17.30;6.07;;;;;;;17.44;47.29;102322.47;5071611;28;20415;-65
2023/05/24 09:51:28;;;;;;;13.45;5.68;;;;;;;17.47;44.88;102327.63;5070589;28;20025;-65
2023/05/24 09:54:00;;;;;;;12.05;4.70;;;;;;;17.78;45.77;102321.03;5070261;28;20364;-65
2023/05/24 09:56:26;;;;;;;11.35;4.93;;;;;;;17.85;45.65;102305.31;5071713;28;20028;-65
2023/05/24 09:58:53;;;;;;;15.50;5.35;;;;;;;18.04;44.39;102318.34;5071445;28;20024;-66
2023/05/24 10:01:23;;;;;;;10.10;4.55;;;;;;;18.07;44.99;102315.44;5071659;28;20056;-66
2023/05/24 10:03:56;;;;;;;12.02;4.20;;;;;;;18.38;43.71;102323.03;5070307;28;20017;-65
2023/05/24 10:06:22;;;;;;;13.52;5.43;;;;;;;18.41;42.54;102294.13;5071761;28;20017;-65
2023/05/24 10:08:50;;;;;;;13.95;5.00;;;;;;;18.51;42.53;102317.59;5071067;28;20024;-65
2023/05/24 10:11:16;;;;;;;14.02;4.78;;;;;;;18.45;43.21;102314.50;5071727;28;20047;-65
2023/05/24 10:13:42;;;;;;;12.52;4.90;;;;;;;18.47;42.40;102317.91;5071497;28;20076;-65
2023/05/24 10:16:10;;;;;;;11.38;4.25;;;;;;;18.41;42.24;102313.84;5073784;28;20465;-65
2023/05/24 10:18:36;;;;;;;11.68;4.38;;;;;;;18.37;43.15;102302.44;5075512;28;20020;-65
2023/05/24 10:21:08;;;;;;;15.23;5.30;;;;;;;18.47;43.36;102307.13;5075604;28;20025;-65
2023/05/24 10:23:37;;;;;;;17.40;6.07;;;;;;;18.46;43.09;102303.59;5074990;28;20399;-65
2023/05/24 10:26:08;;;;;;;14.20;5.10;;;;;;;18.78;45.09;102303.94;5074041;28;20067;-65
2023/05/24 10:28:39;;;;;;;11.43;4.97;;;;;;;19.05;44.66;102298.28;5074819;28;20047;-65
2023/05/24 10:31:09;;;;;;;13.55;4.82;;;;;;;19.22;43.69;102306.97;5074737;28;20027;-65
2023/05/24 10:33:36;;;;;;;13.48;5.05;;;;;;;19.19;41.69;102297.25;5075045;28;20391;-65
2023/05/24 10:36:08;;;;;;;14.15;5.18;;;;;;;19.17;42.48;102292.94;5075002;28;20028;-66
2023/05/24 10:38:36;;;;;;;13.40;5.03;;;;;;;19.36;41.16;102298.66;5074645;28;20028;-65
2023/05/24 10:41:01;;;;;;;11.45;4.57;;;;;;;19.58;40.55;102300.53;5074982;28;20075;-65
2023/05/24 10:43:29;;;;;;;13.40;5.30;;;;;;;19.63;39.58;102294.81;5074780;28;20523;-66
2023/05/24 10:45:55;;;;;;;11.10;4.27;;;;;;;19.87;39.77;102300.13;5073493;28;20051;-65
2023/05/24 10:48:31;;;;;;;10.88;4.47;;;;;;;19.67;39.42;102302.56;5073589;28;20017;-65
2023/05/24 10:51:00;;;;;;;11.52;4.10;;;;;;;19.19;42.24;102299.09;5073464;28;20056;-65
2023/05/24 10:53:26;;;;;;;10.77;4.65;;;;;;;19.06;41.11;102291.09;5074116;28;20025;-65
2023/05/24 10:55:54;;;;;;;11.43;4.47;;;;;;;18.85;42.91;102285.47;5074475;28;20028;-66
2023/05/24 10:58:25;;;;;;;15.98;5.22;;;;;;;18.41;43.59;102291.44;5073537;28;20020;-65
2023/05/24 11:00:53;;;;;;;15.35;5.43;;;;;;;18.20;45.05;102296.53;5073368;28;20021;-65
2023/05/24 11:03:23;;;;;;;15.40;5.30;;;;;;;18.22;45.58;102290.09;5074605;28;20017;-65
2023/05/24 11:05:48;;;;;;;16.45;5.22;;;;;;;18.11;45.37;102298.06;5074539;28;20028;-65
2023/05/24 11:08:32;;;;;;;19.92;5.68;;;;;;;18.10;45.24;102290.97;5074112;28;20464;-65
2023/05/24 11:11:10;;;;;;;14.95;4.82;;;;;;;17.98;46.24;102287.31;5072898;28;20039;-65
2023/05/24 11:13:37;;;;;;;12.82;4.93;;;;;;;17.97;45.30;102295.50;5074484;28;20078;-65
2023/05/24 11:16:04;;;;;;;17.23;5.07;;;;;;;17.87;46.80;102293.47;5074418;28;20060;-65
2023/05/24 11:18:29;;;;;;;12.93;4.82;;;;;;;18.03;44.27;102297.75;5073084;28;20028;-65